createdAt,value
2023-02-24T00:01:08.957Z,4.47
2023-02-24T00:03:37.448Z,6.22
2023-02-24T00:06:11.861Z,4.15
2023-02-24T00:08:39.888Z,4.18
2023-02-24T00:11:13.089Z,7.70
2023-02-24T00:13:40.937Z,4.15
2023-02-24T00:16:08.103Z,4.55
2023-02-24T00:18:35.494Z,4.95
2023-02-24T00:21:13.585Z,4.45
2023-02-24T00:23:41.804Z,4.75
2023-02-24T00:26:10.092Z,5.47
2023-02-24T00:28:37.427Z,4.75
2023-02-24T00:31:19.650Z,4.72
2023-02-24T00:33:47.423Z,5.53
2023-02-24T00:36:16.961Z,4.72
2023-02-24T00:38:47.005Z,6.47
2023-02-24T00:41:25.252Z,6.07
2023-02-24T00:43:51.771Z,5.88
2023-02-24T00:46:20.849Z,5.75
2023-02-24T00:48:48.820Z,6.78
2023-02-24T00:51:18.009Z,5.30
2023-02-24T00:53:45.078Z,6.13
2023-02-24T00:56:17.952Z,7.50
2023-02-24T00:58:47.724Z,6.85
2023-02-24T01:01:19.828Z,7.03
2023-02-24T01:03:50.960Z,6.32
2023-02-24T01:08:48.171Z,5.43
2023-02-24T01:11:34.555Z,6.63
2023-02-24T01:14:03.969Z,5.57
2023-02-24T01:16:30.488Z,5.03
2023-02-24T01:18:57.002Z,6.47
2023-02-24T01:21:24.075Z,6.10
2023-02-24T01:23:50.948Z,5.57
2023-02-24T01:26:18.481Z,4.78
2023-02-24T01:28:48.435Z,5.13
2023-02-24T01:31:20.992Z,5.40
2023-02-24T01:33:48.128Z,7.72
2023-02-24T01:36:17.512Z,5.60
2023-02-24T01:38:45.009Z,6.20
2023-02-24T01:41:16.888Z,5.78
2023-02-24T01:44:14.030Z,5.03
2023-02-24T01:46:42.848Z,5.38
2023-02-24T01:49:20.379Z,6.38
2023-02-24T01:51:54.377Z,5.15
2023-02-24T01:54:24.871Z,4.60
2023-02-24T01:56:52.593Z,4.45
2023-02-24T01:59:20.465Z,5.97
2023-02-24T02:01:48.107Z,4.60
2023-02-24T02:04:36.743Z,4.85
2023-02-24T02:07:03.830Z,4.35
2023-02-24T02:09:31.002Z,4.38
2023-02-24T02:11:57.522Z,5.15
2023-02-24T02:14:26.260Z,4.55
2023-02-24T02:17:22.075Z,5.47
2023-02-24T02:20:15.369Z,5.72
2023-02-24T02:23:07.446Z,4.72
2023-02-24T02:25:45.487Z,4.93
2023-02-24T02:28:33.553Z,5.53
2023-02-24T02:31:25.888Z,3.88
2023-02-24T02:34:01.736Z,3.97
2023-02-24T02:36:33.230Z,3.85
2023-02-24T02:39:17.216Z,3.83
2023-02-24T02:41:49.736Z,4.63
2023-02-24T02:44:34.394Z,4.65
2023-02-24T02:47:10.448Z,4.45
2023-02-24T02:49:41.046Z,4.10
2023-02-24T02:52:15.590Z,3.53
2023-02-24T02:55:03.692Z,4.25
2023-02-24T02:57:31.673Z,4.72
2023-02-24T03:00:13.556Z,4.10
2023-02-24T03:02:43.155Z,2.95
2023-02-24T03:05:11.358Z,4.28
2023-02-24T03:07:42.116Z,3.45
2023-02-24T03:10:17.724Z,3.30
2023-02-24T03:12:59.827Z,3.30
2023-02-24T03:15:28.504Z,5.72
2023-02-24T03:18:02.711Z,3.30
2023-02-24T03:20:52.093Z,3.50
2023-02-24T03:23:25.242Z,3.90
2023-02-24T03:25:59.056Z,4.50
2023-02-24T03:28:37.492Z,6.03
2023-02-24T03:31:23.896Z,4.40
2023-02-24T03:34:00.587Z,6.47
2023-02-24T03:36:30.711Z,3.55
2023-02-24T03:38:58.325Z,3.20
2023-02-24T03:41:41.124Z,3.92
2023-02-24T03:44:09.664Z,4.28
2023-02-24T03:46:36.205Z,3.92
2023-02-24T03:49:16.555Z,5.30
2023-02-24T03:52:24.078Z,4.25
2023-02-24T03:55:18.601Z,5.10
2023-02-24T03:58:21.346Z,5.15
2023-02-24T04:01:06.548Z,4.93
2023-02-24T04:04:08.509Z,6.50
2023-02-24T04:06:46.691Z,4.95
2023-02-24T04:09:17.690Z,6.25
2023-02-24T04:14:16.457Z,5.00
2023-02-24T04:16:57.059Z,4.38
2023-02-24T04:19:27.653Z,5.68
2023-02-24T04:21:54.785Z,4.18
2023-02-24T04:24:24.213Z,4.63
2023-02-24T04:26:51.723Z,4.20
2023-02-24T04:29:23.011Z,5.38
2023-02-24T04:31:54.589Z,5.13
2023-02-24T04:34:21.155Z,5.13
2023-02-24T04:36:49.576Z,4.75
2023-02-24T04:39:20.799Z,4.22
2023-02-24T04:41:49.382Z,5.05
2023-02-24T04:44:21.103Z,5.03
2023-02-24T04:46:49.919Z,4.68
2023-02-24T04:49:18.024Z,4.70
2023-02-24T04:51:45.095Z,5.80
2023-02-24T04:54:17.603Z,3.65
2023-02-24T04:56:47.888Z,3.70
2023-02-24T04:59:15.176Z,3.13
2023-02-24T05:04:40.190Z,5.22
2023-02-24T05:07:06.677Z,3.83
2023-02-24T05:09:33.370Z,4.13
2023-02-24T05:12:00.331Z,4.53
2023-02-24T05:14:26.948Z,4.80
2023-02-24T05:17:00.027Z,6.05
2023-02-24T05:19:45.308Z,6.03
2023-02-24T05:22:14.414Z,5.95
2023-02-24T05:24:41.154Z,5.35
2023-02-24T05:27:07.820Z,4.68
2023-02-24T05:29:35.344Z,5.22
2023-02-24T05:32:04.202Z,5.18
2023-02-24T05:34:32.377Z,4.70
2023-02-24T05:37:01.532Z,5.53
2023-02-24T05:39:28.511Z,5.88
2023-02-24T05:41:56.954Z,5.93
2023-02-24T05:44:26.009Z,4.75
2023-02-24T05:47:00.911Z,5.07
2023-02-24T05:49:32.958Z,3.92
2023-02-24T05:52:08.038Z,4.47
2023-02-24T05:54:39.636Z,4.65
2023-02-24T05:57:19.580Z,5.47
2023-02-24T05:59:48.295Z,4.72
2023-02-24T06:02:23.242Z,4.68
2023-02-24T06:04:54.039Z,4.13
2023-02-24T06:07:25.851Z,4.60
2023-02-24T06:09:54.444Z,4.65
2023-02-24T06:12:23.005Z,5.15
2023-02-24T06:14:49.583Z,5.32
2023-02-24T06:17:17.253Z,4.38
2023-02-24T06:19:44.933Z,4.82
2023-02-24T06:22:15.829Z,4.82
2023-02-24T06:27:19.656Z,4.10
2023-02-24T06:29:49.944Z,4.03
2023-02-24T06:32:27.335Z,4.85
2023-02-24T06:34:54.847Z,5.25
2023-02-24T06:37:23.054Z,3.90
2023-02-24T06:39:49.759Z,5.30
2023-02-24T06:42:16.641Z,4.18
2023-02-24T06:44:43.486Z,4.35
2023-02-24T06:47:13.421Z,4.65
2023-02-24T06:49:40.649Z,4.43
2023-02-24T06:52:08.693Z,4.93
2023-02-24T06:54:36.175Z,4.30
2023-02-24T06:57:03.626Z,3.63
2023-02-24T06:59:30.202Z,3.83
2023-02-24T07:01:58.214Z,5.00
2023-02-24T07:04:28.273Z,3.55
2023-02-24T07:06:57.920Z,6.65
2023-02-24T07:09:26.077Z,4.22
2023-02-24T07:11:55.934Z,4.55
2023-02-24T07:14:24.629Z,3.83
2023-02-24T07:16:54.162Z,3.85
2023-02-24T07:19:24.134Z,4.65
2023-02-24T07:21:52.637Z,3.97
2023-02-24T07:24:33.165Z,3.78
2023-02-24T07:27:02.616Z,3.80
2023-02-24T07:29:30.546Z,3.85
2023-02-24T07:32:03.426Z,4.18
2023-02-24T07:34:30.657Z,4.90
2023-02-24T07:36:57.881Z,4.93
2023-02-24T07:39:25.665Z,4.25
2023-02-24T07:41:55.106Z,4.05
2023-02-24T07:44:23.601Z,4.50
2023-02-24T07:46:51.110Z,4.72
2023-02-24T07:49:21.095Z,3.97
2023-02-24T07:51:52.820Z,3.73
2023-02-24T07:54:25.203Z,4.10
2023-02-24T07:56:58.913Z,5.22
2023-02-24T07:59:28.888Z,3.65
2023-02-24T08:01:56.282Z,2.40
2023-02-24T08:04:32.970Z,3.33
2023-02-24T08:07:03.240Z,3.97
2023-02-24T08:09:44.817Z,3.97
2023-02-24T08:12:22.816Z,2.70
2023-02-24T08:14:52.268Z,3.40
2023-02-24T08:17:24.152Z,4.22
2023-02-24T08:20:12.470Z,3.05
2023-02-24T08:22:43.861Z,3.22
2023-02-24T08:25:18.150Z,3.50
2023-02-24T08:27:58.412Z,3.25
2023-02-24T08:30:38.596Z,3.72
2023-02-24T08:33:08.201Z,2.70
2023-02-24T08:35:37.100Z,4.00
2023-02-24T08:38:18.759Z,4.13
2023-02-24T08:40:50.906Z,3.10
2023-02-24T08:43:19.743Z,3.10
2023-02-24T08:45:50.863Z,2.97
2023-02-24T08:48:37.301Z,3.08
2023-02-24T08:51:11.444Z,4.25
2023-02-24T08:53:40.604Z,3.50
2023-02-24T08:56:11.498Z,3.45
2023-02-24T09:01:24.082Z,3.67
2023-02-24T09:03:54.780Z,3.15
2023-02-24T09:06:27.883Z,2.85
2023-02-24T09:09:16.569Z,2.70
2023-02-24T09:11:56.960Z,5.00
2023-02-24T09:14:29.438Z,3.13
2023-02-24T09:17:05.484Z,3.15
2023-02-24T09:19:48.150Z,4.53
2023-02-24T09:22:31.193Z,4.20
2023-02-24T09:25:19.147Z,5.05
2023-02-24T09:27:56.925Z,4.93
2023-02-24T09:30:38.089Z,4.82
2023-02-24T09:33:20.867Z,8.55
2023-02-24T09:36:12.920Z,5.80
2023-02-24T09:38:59.190Z,4.60
2023-02-24T09:41:53.381Z,4.35
2023-02-24T09:44:28.710Z,4.50
2023-02-24T09:47:08.968Z,5.50
2023-02-24T09:49:49.580Z,5.28
2023-02-24T09:52:18.311Z,3.90
2023-02-24T09:55:13.880Z,4.13
2023-02-24T09:58:17.886Z,4.57
2023-02-24T10:00:53.076Z,4.32
2023-02-24T10:03:42.374Z,4.32
2023-02-24T10:06:20.676Z,4.10
2023-02-24T10:08:55.333Z,3.95
2023-02-24T10:11:32.902Z,4.07
2023-02-24T10:14:05.493Z,4.20
2023-02-24T10:16:57.813Z,3.58
2023-02-24T10:19:25.049Z,4.05
2023-02-24T10:22:03.704Z,6.00
2023-02-24T10:24:35.831Z,3.17
2023-02-24T10:27:23.992Z,2.97
2023-02-24T10:30:05.162Z,4.20
2023-02-24T10:32:38.400Z,3.83
2023-02-24T10:35:06.194Z,3.67
2023-02-24T10:37:32.687Z,4.78
2023-02-24T10:40:09.458Z,4.07
2023-02-24T10:42:44.486Z,4.03
2023-02-24T10:45:17.650Z,4.20
2023-02-24T10:47:57.110Z,3.70
2023-02-24T10:50:32.843Z,4.70
2023-02-24T10:53:10.083Z,6.00
2023-02-24T10:55:45.552Z,4.30
2023-02-24T10:58:28.064Z,3.65
2023-02-24T11:01:13.204Z,4.95
2023-02-24T11:03:43.836Z,4.57
2023-02-24T11:06:40.706Z,4.00
2023-02-24T11:09:31.794Z,4.53
2023-02-24T11:15:14.922Z,4.60
2023-02-24T11:17:58.235Z,4.75
2023-02-24T11:20:48.366Z,4.43
2023-02-24T11:23:38.007Z,4.63
2023-02-24T11:26:17.134Z,4.57
2023-02-24T11:29:12.427Z,3.88
2023-02-24T11:31:45.259Z,4.38
2023-02-24T11:34:30.928Z,5.00
2023-02-24T11:37:22.755Z,5.18
2023-02-24T11:40:03.627Z,4.97
2023-02-24T11:42:43.760Z,6.32
2023-02-24T11:45:29.447Z,5.30
2023-02-24T11:48:05.322Z,4.43
2023-02-24T11:50:58.531Z,7.25
2023-02-24T11:53:30.093Z,5.10
2023-02-24T11:56:20.863Z,5.13
2023-02-24T11:59:02.407Z,6.03
2023-02-24T12:01:48.276Z,5.60
2023-02-24T12:04:35.099Z,6.57
2023-02-24T12:07:21.923Z,6.50
2023-02-24T12:10:06.982Z,6.78
2023-02-24T12:13:16.238Z,6.85
2023-02-24T12:15:55.363Z,6.13
2023-02-24T12:18:35.079Z,6.47
2023-02-24T12:21:07.940Z,6.97
2023-02-24T12:23:37.504Z,7.10
2023-02-24T12:26:16.296Z,8.55
2023-02-24T12:28:53.638Z,7.57
2023-02-24T12:32:03.028Z,7.95
2023-02-24T12:35:20.119Z,7.20
2023-02-24T12:38:17.848Z,8.88
2023-02-24T12:40:56.837Z,8.15
2023-02-24T12:43:37.628Z,10.00
2023-02-24T12:46:16.380Z,7.85
2023-02-24T12:49:24.074Z,10.65
2023-02-24T12:52:03.573Z,9.20
2023-02-24T12:54:33.240Z,8.45
2023-02-24T12:57:30.834Z,8.25
2023-02-24T13:00:05.509Z,8.23
2023-02-24T13:02:52.272Z,8.48
2023-02-24T13:05:37.889Z,10.18
2023-02-24T13:08:45.971Z,8.35
2023-02-24T13:11:30.312Z,8.73
2023-02-24T13:14:04.192Z,7.60
2023-02-24T13:16:34.179Z,10.88
2023-02-24T13:19:25.826Z,8.95
2023-02-24T13:22:16.837Z,9.98
2023-02-24T13:27:14.856Z,8.40
2023-02-24T13:29:46.593Z,9.20
2023-02-24T13:32:28.437Z,10.25
2023-02-24T13:34:56.815Z,10.27
2023-02-24T13:37:38.022Z,11.27
2023-02-24T13:40:19.459Z,10.43
2023-02-24T13:43:02.180Z,12.85
2023-02-24T13:45:33.442Z,14.07
2023-02-24T13:48:13.111Z,14.80
2023-02-24T13:51:08.677Z,14.40
2023-02-24T13:53:47.774Z,13.75
2023-02-24T13:56:41.937Z,14.30
2023-02-24T13:59:33.098Z,15.13
2023-02-24T14:04:35.570Z,16.65
2023-02-24T14:07:10.771Z,17.48
2023-02-24T14:09:40.198Z,18.27
2023-02-24T14:12:21.821Z,18.50
2023-02-24T14:14:49.598Z,19.05
2023-02-24T14:17:35.980Z,18.80
2023-02-24T14:20:22.115Z,18.67
2023-02-24T14:22:58.803Z,22.52
2023-02-24T14:25:28.268Z,20.75
2023-02-24T14:27:56.075Z,21.27
2023-02-24T14:30:25.955Z,20.30
2023-02-24T14:32:52.704Z,23.38
2023-02-24T14:35:24.094Z,24.08
2023-02-24T14:37:50.648Z,27.30
2023-02-24T14:40:17.312Z,25.30
2023-02-24T14:42:50.104Z,24.88
2023-02-24T14:45:20.330Z,26.17
2023-02-24T14:47:46.932Z,25.92
2023-02-24T14:50:18.961Z,27.48
2023-02-24T14:52:51.147Z,25.30
2023-02-24T14:55:21.523Z,26.17
2023-02-24T14:57:56.788Z,26.60
2023-02-24T15:00:26.132Z,24.77
2023-02-24T15:02:57.861Z,24.10
2023-02-24T15:05:24.443Z,25.42
2023-02-24T15:07:51.958Z,23.33
2023-02-24T15:10:30.144Z,22.73
2023-02-24T15:13:12.587Z,23.65
2023-02-24T15:15:39.584Z,25.05
2023-02-24T15:18:12.310Z,24.05
2023-02-24T15:20:40.832Z,24.35
2023-02-24T15:23:26.094Z,23.75
2023-02-24T15:25:52.781Z,21.33
2023-02-24T15:28:25.989Z,24.63
2023-02-24T15:31:00.183Z,24.27
2023-02-24T15:33:39.120Z,23.85
2023-02-24T15:36:11.156Z,26.90
2023-02-24T15:38:40.684Z,25.65
2023-02-24T15:41:08.435Z,24.42
2023-02-24T15:43:37.975Z,23.60
2023-02-24T15:46:19.885Z,22.42
2023-02-24T15:48:49.160Z,22.48
2023-02-24T15:51:37.868Z,21.80
2023-02-24T15:54:07.591Z,20.98
2023-02-24T15:56:35.158Z,24.15
2023-02-24T15:59:02.606Z,20.08
2023-02-24T16:01:30.633Z,21.45
2023-02-24T16:03:57.257Z,22.80
2023-02-24T16:06:24.614Z,20.83
2023-02-24T16:08:52.045Z,23.15
2023-02-24T16:11:21.294Z,18.83
2023-02-24T16:13:54.402Z,23.00
2023-02-24T16:16:21.711Z,18.67
2023-02-24T16:18:48.404Z,25.30
2023-02-24T16:21:15.052Z,17.95
2023-02-24T16:23:41.664Z,18.02
2023-02-24T16:26:14.982Z,16.67
2023-02-24T16:28:42.636Z,19.75
2023-02-24T16:31:09.331Z,15.25
2023-02-24T16:33:51.837Z,16.75
2023-02-24T16:36:21.735Z,18.33
2023-02-24T16:38:51.559Z,15.50
2023-02-24T16:41:18.249Z,15.82
2023-02-24T16:43:44.742Z,12.70
2023-02-24T16:46:17.252Z,11.55
2023-02-24T16:48:49.100Z,13.45
2023-02-24T16:51:17.490Z,10.57
2023-02-24T16:53:44.074Z,11.85
2023-02-24T16:56:12.015Z,10.60
2023-02-24T16:58:38.583Z,10.23
2023-02-24T17:01:05.678Z,11.18
2023-02-24T17:03:40.723Z,12.38
2023-02-24T17:06:07.284Z,13.55
2023-02-24T17:08:33.906Z,11.30
2023-02-24T17:11:00.447Z,11.38
2023-02-24T17:13:27.026Z,10.82
2023-02-24T17:15:55.498Z,9.85
2023-02-24T17:18:23.174Z,11.25
2023-02-24T17:20:50.091Z,9.05
2023-02-24T17:23:16.800Z,8.13
2023-02-24T17:25:43.477Z,7.85
2023-02-24T17:28:10.959Z,10.80
2023-02-24T17:30:38.484Z,6.70
2023-02-24T17:33:05.486Z,6.72
2023-02-24T17:35:32.048Z,6.75
2023-02-24T17:38:02.215Z,7.20
2023-02-24T17:40:29.281Z,5.35
2023-02-24T17:43:00.378Z,6.35
2023-02-24T17:45:26.930Z,6.28
2023-02-24T17:47:53.781Z,6.03
2023-02-24T17:50:20.538Z,5.50
2023-02-24T17:52:47.213Z,4.53
2023-02-24T17:55:13.755Z,6.45
2023-02-24T17:57:40.333Z,7.07
2023-02-24T18:00:08.157Z,7.47
2023-02-24T18:02:34.814Z,4.85
2023-02-24T18:05:02.735Z,5.40
2023-02-24T18:07:29.231Z,6.00
2023-02-24T18:09:55.725Z,3.42
2023-02-24T18:12:24.192Z,3.05
2023-02-24T18:15:07.412Z,2.75
2023-02-24T18:17:35.828Z,2.00
2023-02-24T18:20:02.753Z,2.72
2023-02-24T18:22:29.306Z,2.22
2023-02-24T18:24:55.789Z,3.17
2023-02-24T18:27:22.381Z,2.25
2023-02-24T18:29:49.028Z,1.60
2023-02-24T18:32:15.804Z,1.25
2023-02-24T18:34:42.471Z,1.95
2023-02-24T18:37:08.958Z,1.95
2023-02-24T18:39:35.645Z,2.08
2023-02-24T18:42:02.264Z,2.75
2023-02-24T18:44:29.350Z,2.03
2023-02-24T18:46:56.038Z,2.13
2023-02-24T18:49:22.708Z,2.70
2023-02-24T18:51:49.208Z,2.40
2023-02-24T18:54:18.413Z,2.53
2023-02-24T18:56:45.013Z,2.17
2023-02-24T18:59:11.748Z,2.58
2023-02-24T19:01:39.393Z,2.70
2023-02-24T19:04:07.768Z,2.45
2023-02-24T19:06:35.384Z,2.63
2023-02-24T19:09:10.355Z,3.20
2023-02-24T19:11:38.153Z,4.60
2023-02-24T19:14:05.130Z,3.30
2023-02-24T19:16:32.141Z,3.05
2023-02-24T19:18:59.969Z,3.15
2023-02-24T19:21:28.397Z,3.40
2023-02-24T19:23:55.081Z,2.97
2023-02-24T19:26:24.656Z,2.90
2023-02-24T19:28:54.636Z,2.88
2023-02-24T19:31:24.494Z,3.70
2023-02-24T19:33:55.881Z,5.25
2023-02-24T19:36:25.929Z,2.85
2023-02-24T19:38:52.985Z,2.53
2023-02-24T19:41:19.675Z,2.85
2023-02-24T19:43:46.235Z,4.78
2023-02-24T19:46:14.911Z,3.35
2023-02-24T19:48:58.551Z,3.33
2023-02-24T19:51:25.271Z,3.05
2023-02-24T19:53:54.219Z,3.13
2023-02-24T19:56:29.954Z,4.65
2023-02-24T19:58:57.800Z,3.67
2023-02-24T20:01:32.008Z,2.58
2023-02-24T20:04:01.351Z,3.08
2023-02-24T20:06:31.836Z,5.10
2023-02-24T20:08:59.704Z,4.35
2023-02-24T20:11:28.659Z,3.05
2023-02-24T20:13:55.361Z,4.32
2023-02-24T20:16:25.049Z,3.17
2023-02-24T20:18:53.866Z,3.35
2023-02-24T20:21:20.482Z,4.40
2023-02-24T20:23:47.036Z,4.22
2023-02-24T20:26:14.270Z,4.22
2023-02-24T20:28:45.350Z,2.90
2023-02-24T20:31:15.445Z,4.88
2023-02-24T20:33:43.702Z,3.22
2023-02-24T20:36:18.994Z,3.47
2023-02-24T20:38:45.846Z,2.90
2023-02-24T20:41:12.591Z,3.08
2023-02-24T20:43:39.405Z,3.10
2023-02-24T20:46:16.717Z,6.55
2023-02-24T20:48:44.098Z,4.15
2023-02-24T20:51:12.402Z,4.53
2023-02-24T20:53:54.555Z,5.25
2023-02-24T20:56:23.484Z,5.00
2023-02-24T20:58:52.661Z,4.72
2023-02-24T21:01:20.758Z,4.65
2023-02-24T21:03:48.272Z,4.80
2023-02-24T21:06:16.252Z,4.15
2023-02-24T21:08:45.966Z,5.07
2023-02-24T21:11:13.358Z,4.00
2023-02-24T21:13:44.496Z,4.82
2023-02-24T21:16:12.539Z,5.13
2023-02-24T21:18:40.831Z,4.57
2023-02-24T21:21:08.587Z,5.28
2023-02-24T21:23:36.724Z,4.72
2023-02-24T21:26:06.610Z,4.68
2023-02-24T21:28:34.102Z,4.17
2023-02-24T21:31:01.355Z,4.50
2023-02-24T21:33:27.932Z,6.00
2023-02-24T21:36:06.746Z,4.25
2023-02-24T21:38:37.291Z,4.00
2023-02-24T21:41:13.413Z,5.68
2023-02-24T21:43:40.244Z,4.38
2023-02-24T21:46:09.090Z,6.60
2023-02-24T21:48:37.002Z,4.82
2023-02-24T21:51:05.756Z,4.40
2023-02-24T21:53:35.371Z,4.40
2023-02-24T21:56:10.826Z,6.30
2023-02-24T21:58:39.136Z,5.32
2023-02-24T22:01:18.897Z,6.25
2023-02-24T22:03:45.663Z,5.32
2023-02-24T22:06:13.971Z,5.22
2023-02-24T22:08:43.566Z,6.28
2023-02-24T22:11:30.666Z,5.32
2023-02-24T22:13:57.423Z,6.20
2023-02-24T22:16:25.891Z,6.93
2023-02-24T22:18:53.610Z,5.85
2023-02-24T22:21:22.807Z,5.38
2023-02-24T22:24:02.858Z,4.95
2023-02-24T22:26:30.360Z,5.93
2023-02-24T22:29:00.713Z,5.32
2023-02-24T22:31:29.986Z,6.07
2023-02-24T22:34:00.248Z,4.93
2023-02-24T22:36:36.795Z,6.50
2023-02-24T22:39:06.464Z,5.88
2023-02-24T22:41:36.964Z,5.40
2023-02-24T22:44:06.679Z,4.68
2023-02-24T22:46:36.283Z,6.50
2023-02-24T22:49:04.744Z,5.10
2023-02-24T22:51:31.507Z,7.43
2023-02-24T22:53:58.081Z,7.32
2023-02-24T22:56:26.539Z,5.32
2023-02-24T22:58:53.477Z,4.47
2023-02-24T23:01:26.424Z,4.40
2023-02-24T23:03:53.642Z,5.07
2023-02-24T23:06:25.880Z,5.13
2023-02-24T23:08:53.447Z,4.28
2023-02-24T23:11:43.359Z,5.65
2023-02-24T23:14:13.782Z,4.10
2023-02-24T23:16:44.492Z,3.72
2023-02-24T23:19:16.036Z,4.63
2023-02-24T23:21:45.393Z,4.03
2023-02-24T23:24:14.068Z,4.28
2023-02-24T23:26:44.101Z,3.33
2023-02-24T23:29:12.975Z,3.20
2023-02-24T23:31:40.800Z,4.57
2023-02-24T23:34:07.873Z,4.97
2023-02-24T23:36:36.086Z,4.05
2023-02-24T23:39:04.537Z,4.00
2023-02-24T23:41:31.149Z,4.40
2023-02-24T23:43:58.392Z,4.35
2023-02-24T23:46:25.553Z,4.13
2023-02-24T23:48:53.148Z,3.70
2023-02-24T23:51:20.301Z,3.63
2023-02-24T23:53:47.986Z,3.35
2023-02-24T23:56:20.396Z,3.47
2023-02-24T23:58:51.690Z,3.10
